createdAt,value
2018-05-07T00:03:29.811Z,66.81
2018-05-07T00:09:35.007Z,66.80
2018-05-07T00:15:39.440Z,66.54
2018-05-07T00:21:43.833Z,66.97
2018-05-07T00:27:48.224Z,66.73
2018-05-07T00:33:52.815Z,66.44
2018-05-07T00:39:57.358Z,67.08
2018-05-07T00:46:01.739Z,67.19
2018-05-07T00:52:06.150Z,67.25
2018-05-07T00:58:10.539Z,67.22
2018-05-07T01:04:15.071Z,66.75
2018-05-07T01:10:20.781Z,66.88
2018-05-07T01:16:25.204Z,66.94
2018-05-07T01:22:29.572Z,67.10
2018-05-07T01:28:33.939Z,67.32
2018-05-07T01:34:38.489Z,66.81
2018-05-07T01:40:42.860Z,66.96
2018-05-07T01:46:47.213Z,67.44
2018-05-07T01:52:52.523Z,67.63
2018-05-07T01:58:56.986Z,68.41
2018-05-07T02:05:01.439Z,68.34
2018-05-07T02:11:05.804Z,68.58
2018-05-07T02:17:10.176Z,69.94
2018-05-07T02:23:14.551Z,70.90
2018-05-07T02:29:18.923Z,70.70
2018-05-07T02:35:23.392Z,70.58
2018-05-07T02:41:27.755Z,70.37
2018-05-07T02:47:32.161Z,70.50
2018-05-07T02:53:36.534Z,70.78
2018-05-07T02:59:40.900Z,71.26
2018-05-07T03:05:45.270Z,70.84
2018-05-07T03:11:49.877Z,71.56
2018-05-07T03:17:54.289Z,71.04
2018-05-07T03:23:58.751Z,71.45
2018-05-07T03:30:03.115Z,71.57
2018-05-07T03:36:07.467Z,71.60
2018-05-07T03:42:11.866Z,72.30
2018-05-07T03:48:16.376Z,72.40
2018-05-07T03:54:21.070Z,72.47
2018-05-07T04:00:25.508Z,72.05
2018-05-07T04:06:29.950Z,72.85
2018-05-07T04:12:35.231Z,72.52
2018-05-07T04:25:28.895Z,72.11
2018-05-07T04:31:33.314Z,72.25
2018-05-07T04:37:37.715Z,72.03
2018-05-07T04:43:42.106Z,72.04
2018-05-07T04:49:47.269Z,72.26
2018-05-07T04:55:51.794Z,71.90
2018-05-07T05:01:56.955Z,71.73
2018-05-07T05:08:01.343Z,71.77
2018-05-07T05:14:05.803Z,70.80
2018-05-07T05:20:10.189Z,70.70
2018-05-07T05:26:14.667Z,69.66
2018-05-07T05:32:19.230Z,69.35
2018-05-07T05:38:24.629Z,69.33
2018-05-07T05:44:29.043Z,68.69
2018-05-07T05:50:34.206Z,68.06
2018-05-07T05:56:38.616Z,68.25
2018-05-07T06:02:43.866Z,68.28
2018-05-07T06:08:48.269Z,67.32
2018-05-07T06:14:53.585Z,65.87
2018-05-07T06:20:57.951Z,65.09
2018-05-07T06:27:03.135Z,64.07
2018-05-07T06:33:07.528Z,62.39
2018-05-07T06:39:12.467Z,60.65
2018-05-07T06:45:17.045Z,60.24
2018-05-07T06:51:21.710Z,59.61
2018-05-07T06:57:26.118Z,57.75
2018-05-07T07:03:30.528Z,57.07
2018-05-07T07:09:34.873Z,56.83
2018-05-07T07:15:39.251Z,55.98
2018-05-07T07:21:43.647Z,53.28
2018-05-07T07:27:48.015Z,51.61
2018-05-07T07:33:52.721Z,50.67
2018-05-07T07:39:57.058Z,50.85
2018-05-07T07:46:01.504Z,48.66
2018-05-07T07:52:05.914Z,49.44
2018-05-07T07:58:10.359Z,47.26
2018-05-07T08:04:14.818Z,49.51
2018-05-07T08:10:19.222Z,48.12
2018-05-07T08:16:23.707Z,46.26
2018-05-07T08:22:28.089Z,47.27
2018-05-07T08:28:32.490Z,45.07
2018-05-07T08:34:36.853Z,45.02
2018-05-07T08:40:41.219Z,43.88
2018-05-07T08:46:45.650Z,40.86
2018-05-07T08:52:50.918Z,38.69
2018-05-07T08:58:55.345Z,41.24
2018-05-07T09:04:59.810Z,40.28
2018-05-07T09:11:04.176Z,39.79
2018-05-07T09:17:08.591Z,37.52
2018-05-07T09:23:12.974Z,37.13
2018-05-07T09:29:17.344Z,39.68
2018-05-07T09:35:22.113Z,36.41
2018-05-07T09:41:26.629Z,36.87
2018-05-07T09:47:31.060Z,36.90
2018-05-07T09:53:35.418Z,35.40
2018-05-07T09:59:39.779Z,34.35
2018-05-07T10:05:45.028Z,34.39
2018-05-07T10:11:49.482Z,34.60
2018-05-07T10:17:53.961Z,34.28
2018-05-07T10:23:58.313Z,32.50
2018-05-07T10:30:02.663Z,33.53
2018-05-07T10:36:07.026Z,31.26
2018-05-07T10:42:11.382Z,32.78
2018-05-07T10:48:15.736Z,30.04
2018-05-07T10:54:20.308Z,30.12
2018-05-07T11:00:24.910Z,31.89
2018-05-07T11:06:29.334Z,28.95
2018-05-07T11:12:34.541Z,29.31
2018-05-07T11:18:38.893Z,28.79
2018-05-07T11:24:44.021Z,26.85
2018-05-07T11:30:48.490Z,29.22
2018-05-07T11:36:52.865Z,26.23
2018-05-07T11:42:57.238Z,26.26
2018-05-07T11:49:01.637Z,28.47
2018-05-07T11:55:05.983Z,29.31
2018-05-07T12:01:10.352Z,26.66
2018-05-07T12:07:15.540Z,25.60
2018-05-07T12:13:20.194Z,23.52
2018-05-07T12:19:24.678Z,22.95
2018-05-07T12:25:29.036Z,22.17
2018-05-07T12:31:33.496Z,22.13
2018-05-07T12:37:37.766Z,21.38
2018-05-07T12:43:42.229Z,20.99
2018-05-07T12:49:46.539Z,21.14
2018-05-07T12:55:51.320Z,21.29
2018-05-07T13:01:55.743Z,24.25
2018-05-07T13:08:00.092Z,24.44
2018-05-07T13:14:04.450Z,18.94
2018-05-07T13:20:08.803Z,19.11
2018-05-07T13:26:13.155Z,20.70
2018-05-07T13:32:17.503Z,17.55
2018-05-07T13:38:22.739Z,16.84
2018-05-07T13:44:27.145Z,16.35
2018-05-07T13:50:31.504Z,18.88
2018-05-07T13:56:35.854Z,19.19
2018-05-07T14:02:40.237Z,19.85
2018-05-07T14:08:44.595Z,18.69
2018-05-07T14:14:49.734Z,18.11
2018-05-07T14:20:54.310Z,17.60
2018-05-07T14:26:59.525Z,17.26
2018-05-07T14:33:03.883Z,16.21
2018-05-07T14:39:08.233Z,16.07
2018-05-07T14:45:12.634Z,15.35
2018-05-07T14:51:16.991Z,15.46
2018-05-07T14:57:21.804Z,14.81
2018-05-07T15:03:26.166Z,13.59
2018-05-07T15:09:30.530Z,13.49
2018-05-07T15:15:34.991Z,13.03
2018-05-07T15:21:39.362Z,14.28
2018-05-07T15:27:43.708Z,14.38
2018-05-07T15:33:48.052Z,14.41
2018-05-07T15:39:52.571Z,13.93
2018-05-07T15:45:56.961Z,13.51
2018-05-07T15:52:01.316Z,13.12
2018-05-07T15:58:05.681Z,12.98
2018-05-07T16:04:10.068Z,13.56
2018-05-07T16:10:14.425Z,13.04
2018-05-07T16:16:19.584Z,12.67
2018-05-07T16:22:24.021Z,12.82
2018-05-07T16:28:28.381Z,13.24
2018-05-07T16:34:32.756Z,12.94
2018-05-07T16:40:37.108Z,13.13
2018-05-07T16:46:41.506Z,14.67
2018-05-07T16:52:45.866Z,15.83
2018-05-07T16:58:50.382Z,16.30
2018-05-07T17:04:54.777Z,15.99
2018-05-07T17:10:59.144Z,16.10
2018-05-07T17:17:03.501Z,15.81
2018-05-07T17:23:07.886Z,16.83
2018-05-07T17:29:12.257Z,17.79
2018-05-07T17:35:16.698Z,17.50
2018-05-07T17:41:21.929Z,17.00
2018-05-07T17:47:43.999Z,18.45
2018-05-07T17:53:48.366Z,19.02
2018-05-07T17:59:53.068Z,18.75
2018-05-07T18:05:57.475Z,19.94
2018-05-07T18:12:01.910Z,19.91
2018-05-07T18:18:06.261Z,22.03
2018-05-07T18:24:11.382Z,23.65
2018-05-07T18:30:15.768Z,25.07
2018-05-07T18:36:20.545Z,29.31
2018-05-07T18:42:25.010Z,33.50
2018-05-07T18:48:29.369Z,36.25
2018-05-07T18:54:34.491Z,37.65
2018-05-07T19:00:38.879Z,38.86
2018-05-07T19:06:43.237Z,39.82
2018-05-07T19:12:47.689Z,41.56
2018-05-07T19:18:52.163Z,42.88
2018-05-07T19:24:57.362Z,43.05
2018-05-07T19:31:01.816Z,44.74
2018-05-07T19:37:06.173Z,45.72
2018-05-07T19:43:10.522Z,47.29
2018-05-07T19:49:14.968Z,47.58
2018-05-07T19:55:21.175Z,47.84
2018-05-07T20:01:25.623Z,48.39
2018-05-07T20:07:30.016Z,48.57
2018-05-07T20:13:34.383Z,48.66
2018-05-07T20:19:38.842Z,48.80
2018-05-07T20:25:43.216Z,49.65
2018-05-07T20:31:47.637Z,50.42
2018-05-07T20:37:52.092Z,51.11
2018-05-07T20:43:56.509Z,50.88
2018-05-07T20:50:00.910Z,51.84
2018-05-07T20:56:06.103Z,52.27
2018-05-07T21:02:10.466Z,53.22
2018-05-07T21:08:14.864Z,53.61
2018-05-07T21:14:19.288Z,54.47
2018-05-07T21:20:23.861Z,54.08
2018-05-07T21:26:29.025Z,54.67
2018-05-07T21:32:33.403Z,54.72
2018-05-07T21:38:37.776Z,54.14
2018-05-07T21:44:42.134Z,55.93
2018-05-07T21:50:46.536Z,56.40
2018-05-07T21:56:51.855Z,56.75
2018-05-07T22:02:56.297Z,55.79
2018-05-07T22:09:00.796Z,57.13
2018-05-07T22:15:05.190Z,58.08
2018-05-07T22:21:09.555Z,57.79
2018-05-07T22:27:14.692Z,58.49
2018-05-07T22:33:20.006Z,59.20
2018-05-07T22:39:25.321Z,59.56
2018-05-07T22:45:30.471Z,59.73
2018-05-07T22:51:34.861Z,59.78
2018-05-07T22:57:39.232Z,60.34
2018-05-07T23:03:44.425Z,60.60
2018-05-07T23:09:48.784Z,61.11
2018-05-07T23:15:53.319Z,61.44
2018-05-07T23:21:58.480Z,60.87
2018-05-07T23:28:02.867Z,61.44
2018-05-07T23:34:07.255Z,61.25
2018-05-07T23:40:11.616Z,60.56
2018-05-07T23:46:15.992Z,61.15
2018-05-07T23:52:20.681Z,61.52
2018-05-07T23:58:25.147Z,62.67
